createdAt,value
2022-12-15T00:00:48.811Z,6.45
2022-12-15T00:03:31.472Z,6.47
2022-12-15T00:06:15.584Z,6.15
2022-12-15T00:08:57.800Z,6.00
2022-12-15T00:11:42.574Z,7.05
2022-12-15T00:14:26.193Z,4.85
2022-12-15T00:17:08.380Z,6.97
2022-12-15T00:19:50.527Z,7.00
2022-12-15T00:22:32.813Z,6.50
2022-12-15T00:25:15.316Z,6.22
2022-12-15T00:28:00.099Z,6.05
2022-12-15T00:30:42.868Z,6.25
2022-12-15T00:33:26.457Z,6.47
2022-12-15T00:36:10.231Z,5.43
2022-12-15T00:38:46.253Z,6.45
2022-12-15T00:41:18.379Z,5.90
2022-12-15T00:43:50.655Z,5.55
2022-12-15T00:46:32.880Z,5.90
2022-12-15T00:49:03.281Z,5.25
2022-12-15T00:51:45.594Z,4.53
2022-12-15T00:54:28.033Z,4.45
2022-12-15T00:57:10.227Z,4.60
2022-12-15T00:59:54.987Z,4.50
2022-12-15T01:02:37.239Z,2.88
2022-12-15T01:05:20.502Z,3.70
2022-12-15T01:08:02.672Z,3.78
2022-12-15T01:10:44.880Z,4.10
2022-12-15T01:13:29.045Z,3.45
2022-12-15T01:16:14.142Z,4.72
2022-12-15T01:18:56.396Z,6.00
2022-12-15T01:21:26.114Z,5.75
2022-12-15T01:23:56.461Z,5.68
2022-12-15T01:26:26.140Z,5.95
2022-12-15T01:28:55.824Z,5.35
2022-12-15T01:31:28.626Z,4.10
2022-12-15T01:33:58.338Z,3.80
2022-12-15T01:36:30.594Z,3.95
2022-12-15T01:39:00.274Z,4.15
2022-12-15T01:41:27.924Z,3.67
2022-12-15T01:43:57.628Z,4.38
2022-12-15T01:46:30.033Z,3.42
2022-12-15T01:49:10.760Z,4.13
2022-12-15T01:51:44.978Z,3.65
2022-12-15T01:54:18.526Z,3.83
2022-12-15T01:56:51.291Z,3.40
2022-12-15T01:59:25.188Z,3.88
2022-12-15T02:01:57.517Z,3.78
2022-12-15T02:04:28.054Z,4.40
2022-12-15T02:06:57.761Z,3.13
2022-12-15T02:09:29.427Z,3.13
2022-12-15T02:12:15.285Z,3.80
2022-12-15T02:14:56.669Z,3.80
2022-12-15T02:17:38.447Z,3.50
2022-12-15T02:20:38.021Z,3.65
2022-12-15T02:23:48.277Z,3.80
2022-12-15T02:26:39.557Z,3.72
2022-12-15T02:29:21.841Z,3.60
2022-12-15T02:32:01.491Z,3.45
2022-12-15T02:34:41.241Z,3.72
2022-12-15T02:37:16.244Z,3.55
2022-12-15T02:39:46.133Z,3.50
2022-12-15T02:42:16.507Z,3.78
2022-12-15T02:44:51.160Z,3.83
2022-12-15T02:47:35.364Z,4.25
2022-12-15T02:50:29.248Z,3.75
2022-12-15T02:53:13.720Z,3.58
2022-12-15T02:55:53.305Z,4.22
2022-12-15T02:58:31.971Z,4.10
2022-12-15T03:01:05.469Z,4.47
2022-12-15T03:03:38.648Z,3.72
2022-12-15T03:06:08.978Z,4.50
2022-12-15T03:08:41.021Z,3.67
2022-12-15T03:11:10.813Z,4.03
2022-12-15T03:13:40.518Z,3.80
2022-12-15T03:16:10.762Z,3.55
2022-12-15T03:18:43.137Z,3.90
2022-12-15T03:21:12.817Z,3.50
2022-12-15T03:23:42.528Z,3.78
2022-12-15T03:26:12.284Z,3.33
2022-12-15T03:28:42.785Z,3.35
2022-12-15T03:31:12.733Z,3.50
2022-12-15T03:33:45.114Z,3.75
2022-12-15T03:36:14.804Z,3.05
2022-12-15T03:38:47.490Z,3.40
2022-12-15T03:41:17.986Z,3.22
2022-12-15T03:43:50.151Z,3.80
2022-12-15T03:46:19.956Z,3.28
2022-12-15T03:48:52.433Z,3.67
2022-12-15T03:51:22.180Z,3.80
2022-12-15T03:53:52.083Z,4.30
2022-12-15T03:56:21.789Z,3.85
2022-12-15T03:58:51.536Z,4.30
2022-12-15T04:01:29.646Z,4.38
2022-12-15T04:04:03.037Z,5.20
2022-12-15T04:06:33.548Z,3.92
2022-12-15T04:09:03.253Z,4.32
2022-12-15T04:11:32.966Z,3.42
2022-12-15T04:14:02.654Z,4.05
2022-12-15T04:16:32.580Z,3.47
2022-12-15T04:19:17.378Z,4.35
2022-12-15T04:21:47.222Z,3.87
2022-12-15T04:24:29.488Z,3.03
2022-12-15T04:27:11.658Z,3.72
2022-12-15T04:29:53.848Z,3.58
2022-12-15T04:32:36.046Z,4.03
2022-12-15T04:35:21.541Z,3.95
2022-12-15T04:38:03.741Z,4.35
2022-12-15T04:40:45.939Z,3.85
2022-12-15T04:43:28.370Z,3.95
2022-12-15T04:46:10.833Z,4.00
2022-12-15T04:48:53.032Z,3.55
2022-12-15T04:51:37.802Z,3.67
2022-12-15T04:54:19.952Z,3.70
2022-12-15T04:57:02.129Z,4.50
2022-12-15T04:59:44.346Z,3.63
2022-12-15T05:02:26.751Z,4.50
2022-12-15T05:05:09.021Z,4.20
2022-12-15T05:07:53.811Z,4.50
2022-12-15T05:10:36.021Z,4.07
2022-12-15T05:13:22.264Z,4.00
2022-12-15T05:16:04.507Z,4.53
2022-12-15T05:18:46.770Z,4.68
2022-12-15T05:21:28.951Z,4.85
2022-12-15T05:24:13.697Z,5.05
2022-12-15T05:26:55.928Z,5.37
2022-12-15T05:29:38.148Z,4.03
2022-12-15T05:32:08.116Z,4.38
2022-12-15T05:34:39.178Z,4.70
2022-12-15T05:37:09.117Z,4.25
2022-12-15T05:39:41.609Z,4.75
2022-12-15T05:42:11.539Z,4.30
2022-12-15T05:44:41.864Z,3.97
2022-12-15T05:47:11.896Z,3.85
2022-12-15T05:49:41.605Z,3.95
2022-12-15T05:52:11.611Z,3.83
2022-12-15T05:54:43.902Z,3.92
2022-12-15T05:57:13.641Z,3.60
2022-12-15T05:59:43.378Z,3.13
2022-12-15T06:02:13.192Z,3.63
2022-12-15T06:04:43.639Z,4.40
2022-12-15T06:07:13.385Z,3.60
2022-12-15T06:09:45.731Z,3.47
2022-12-15T06:12:15.460Z,3.50
2022-12-15T06:14:45.215Z,4.35
2022-12-15T06:17:15.015Z,4.15
2022-12-15T06:19:44.690Z,3.45
2022-12-15T06:22:14.354Z,3.50
2022-12-15T06:24:46.831Z,3.72
2022-12-15T06:27:16.586Z,3.35
2022-12-15T06:29:46.348Z,3.22
2022-12-15T06:32:16.096Z,3.28
2022-12-15T06:34:45.807Z,3.40
2022-12-15T06:37:15.576Z,3.30
2022-12-15T06:39:48.068Z,3.45
2022-12-15T06:42:17.789Z,3.58
2022-12-15T06:44:47.585Z,4.50
2022-12-15T06:47:20.035Z,4.00
2022-12-15T06:49:49.923Z,4.32
2022-12-15T06:52:19.651Z,5.00
2022-12-15T06:54:51.976Z,4.50
2022-12-15T06:57:21.695Z,4.70
2022-12-15T06:59:51.417Z,4.18
2022-12-15T07:02:28.861Z,4.28
2022-12-15T07:04:59.041Z,4.35
2022-12-15T07:07:29.112Z,4.57
2022-12-15T07:10:01.393Z,4.25
2022-12-15T07:12:31.147Z,3.78
2022-12-15T07:15:00.923Z,3.25
2022-12-15T07:17:30.970Z,3.33
2022-12-15T07:20:00.704Z,4.53
2022-12-15T07:22:31.177Z,4.53
2022-12-15T07:25:03.554Z,4.30
2022-12-15T07:27:33.451Z,4.70
2022-12-15T07:30:03.189Z,4.57
2022-12-15T07:32:33.161Z,5.15
2022-12-15T07:35:05.439Z,4.60
2022-12-15T07:37:35.169Z,3.78
2022-12-15T07:40:08.832Z,3.58
2022-12-15T07:42:39.115Z,4.53
2022-12-15T07:45:10.854Z,3.83
2022-12-15T07:47:40.626Z,3.30
2022-12-15T07:50:11.582Z,3.63
2022-12-15T07:52:41.281Z,3.17
2022-12-15T07:55:13.777Z,5.63
2022-12-15T07:57:43.546Z,4.82
2022-12-15T08:00:14.857Z,5.57
2022-12-15T08:02:45.068Z,6.03
2022-12-15T08:07:49.639Z,6.13
2022-12-15T08:10:21.998Z,6.05
2022-12-15T08:12:51.727Z,6.63
2022-12-15T08:15:21.481Z,5.18
2022-12-15T08:17:51.663Z,5.45
2022-12-15T08:20:21.474Z,6.35
2022-12-15T08:22:51.197Z,7.15
2022-12-15T08:25:23.496Z,5.50
2022-12-15T08:27:53.261Z,5.50
2022-12-15T08:30:23.043Z,5.10
2022-12-15T08:32:53.022Z,5.00
2022-12-15T08:35:54.478Z,4.05
2022-12-15T08:38:12.717Z,5.05
2022-12-15T08:40:45.029Z,4.93
2022-12-15T08:43:14.806Z,4.32
2022-12-15T08:45:45.133Z,4.43
2022-12-15T08:48:15.047Z,4.57
2022-12-15T08:50:47.042Z,5.05
2022-12-15T08:53:32.528Z,5.57
2022-12-15T08:56:08.699Z,5.90
2022-12-15T08:58:39.273Z,5.55
2022-12-15T09:01:11.121Z,5.55
2022-12-15T09:03:41.225Z,6.30
2022-12-15T09:06:15.935Z,6.40
2022-12-15T09:08:48.546Z,6.93
2022-12-15T09:11:23.114Z,7.00
2022-12-15T09:13:52.971Z,6.60
2022-12-15T09:16:23.963Z,6.75
2022-12-15T09:18:55.664Z,6.57
2022-12-15T09:21:27.303Z,7.80
2022-12-15T09:24:00.747Z,8.68
2022-12-15T09:26:35.426Z,8.50
2022-12-15T09:29:05.822Z,9.07
2022-12-15T09:31:39.804Z,8.05
2022-12-15T09:34:09.546Z,7.82
2022-12-15T09:36:39.254Z,4.75
2022-12-15T09:39:08.976Z,4.95
2022-12-15T09:41:43.331Z,6.32
2022-12-15T09:44:16.179Z,10.43
2022-12-15T09:46:57.351Z,6.00
2022-12-15T09:49:40.738Z,6.13
2022-12-15T09:52:15.607Z,7.22
2022-12-15T09:54:46.863Z,8.10
2022-12-15T09:57:28.032Z,8.55
2022-12-15T10:00:10.151Z,6.07
2022-12-15T10:02:58.576Z,5.00
2022-12-15T10:06:07.348Z,4.05
2022-12-15T10:08:33.784Z,3.90
2022-12-15T10:11:06.667Z,3.58
2022-12-15T10:13:45.490Z,3.25
2022-12-15T10:16:23.908Z,3.58
2022-12-15T10:19:01.855Z,3.67
2022-12-15T10:21:34.723Z,3.33
2022-12-15T10:24:15.049Z,3.13
2022-12-15T10:26:45.906Z,3.67
2022-12-15T10:29:36.570Z,3.70
2022-12-15T10:32:08.769Z,3.10
2022-12-15T10:34:39.922Z,3.22
2022-12-15T10:37:16.289Z,3.67
2022-12-15T10:39:50.261Z,3.30
2022-12-15T10:42:23.518Z,3.45
2022-12-15T10:44:57.870Z,4.03
2022-12-15T10:47:29.687Z,3.30
2022-12-15T10:50:24.503Z,3.13
2022-12-15T10:52:55.042Z,2.17
2022-12-15T10:55:40.997Z,3.30
2022-12-15T10:58:20.739Z,3.08
2022-12-15T11:01:08.883Z,2.55
2022-12-15T11:03:41.378Z,2.60
2022-12-15T11:06:17.930Z,2.72
2022-12-15T11:08:48.388Z,2.97
2022-12-15T11:11:45.855Z,2.53
2022-12-15T11:14:18.874Z,2.33
2022-12-15T11:16:55.373Z,2.83
2022-12-15T11:19:34.396Z,2.80
2022-12-15T11:22:08.783Z,3.20
2022-12-15T11:24:45.579Z,3.20
2022-12-15T11:27:24.634Z,3.58
2022-12-15T11:32:38.282Z,4.43
2022-12-15T11:35:14.374Z,3.53
2022-12-15T11:37:46.037Z,3.17
2022-12-15T11:40:37.143Z,3.55
2022-12-15T11:43:30.169Z,3.10
2022-12-15T11:46:21.102Z,2.85
2022-12-15T11:49:09.293Z,3.90
2022-12-15T11:51:45.348Z,3.67
2022-12-15T11:54:25.669Z,4.07
2022-12-15T11:57:02.123Z,3.70
2022-12-15T12:00:01.972Z,3.80
2022-12-15T12:02:54.296Z,3.72
2022-12-15T12:05:46.825Z,3.83
2022-12-15T12:08:32.640Z,4.40
2022-12-15T12:11:11.402Z,4.25
2022-12-15T12:13:53.527Z,4.47
2022-12-15T12:16:37.609Z,5.00
2022-12-15T12:19:09.593Z,4.57
2022-12-15T12:21:46.846Z,4.22
2022-12-15T12:24:26.517Z,5.55
2022-12-15T12:27:01.952Z,4.72
2022-12-15T12:29:36.824Z,4.28
2022-12-15T12:32:14.323Z,3.13
2022-12-15T12:35:32.159Z,4.18
2022-12-15T12:38:01.031Z,4.07
2022-12-15T12:40:44.762Z,4.70
2022-12-15T12:43:25.559Z,7.22
2022-12-15T12:45:58.741Z,5.00
2022-12-15T12:48:34.956Z,3.80
2022-12-15T12:51:25.015Z,3.80
2022-12-15T12:53:58.335Z,3.28
2022-12-15T12:56:34.199Z,3.88
2022-12-15T12:59:08.798Z,3.38
2022-12-15T13:01:40.370Z,3.13
2022-12-15T13:04:13.751Z,4.30
2022-12-15T13:06:59.759Z,7.03
2022-12-15T13:09:44.096Z,11.38
2022-12-15T13:12:53.457Z,10.23
2022-12-15T13:15:43.817Z,7.68
2022-12-15T13:18:18.472Z,7.45
2022-12-15T13:20:50.878Z,5.85
2022-12-15T13:23:45.682Z,3.47
2022-12-15T13:26:21.706Z,3.38
2022-12-15T13:28:53.770Z,2.75
2022-12-15T13:31:30.131Z,2.90
2022-12-15T13:34:32.371Z,2.83
2022-12-15T13:37:03.898Z,3.33
2022-12-15T13:39:59.989Z,3.33
2022-12-15T13:45:51.499Z,2.92
2022-12-15T13:48:30.733Z,3.33
2022-12-15T13:51:07.375Z,4.32
2022-12-15T13:53:43.177Z,3.97
2022-12-15T13:56:42.926Z,3.70
2022-12-15T13:59:27.508Z,7.60
2022-12-15T14:01:57.407Z,6.70
2022-12-15T14:04:29.704Z,6.20
2022-12-15T14:07:02.961Z,5.43
2022-12-15T14:09:36.842Z,5.28
2022-12-15T14:12:10.460Z,5.60
2022-12-15T14:14:49.044Z,4.40
2022-12-15T14:17:21.908Z,4.03
2022-12-15T14:19:53.436Z,10.85
2022-12-15T14:22:29.065Z,5.22
2022-12-15T14:25:06.143Z,6.32
2022-12-15T14:27:36.586Z,5.05
2022-12-15T14:30:24.466Z,5.18
2022-12-15T14:32:59.258Z,5.43
2022-12-15T14:35:33.431Z,4.30
2022-12-15T14:38:08.902Z,6.30
2022-12-15T14:40:40.574Z,4.15
2022-12-15T14:43:14.577Z,3.35
2022-12-15T14:45:46.954Z,3.60
2022-12-15T14:48:41.033Z,4.75
2022-12-15T14:51:13.060Z,4.30
2022-12-15T14:53:46.018Z,5.30
2022-12-15T14:56:29.679Z,6.75
2022-12-15T14:59:21.905Z,4.43
2022-12-15T15:02:02.123Z,5.10
2022-12-15T15:03:11.018Z,2.72
2022-12-15T15:04:34.259Z,9.23
2022-12-15T15:07:07.083Z,16.10
2022-12-15T15:09:42.223Z,12.30
2022-12-15T15:12:18.091Z,7.93
2022-12-15T15:14:50.857Z,4.93
2022-12-15T15:17:37.918Z,9.73
2022-12-15T15:20:18.698Z,10.98
2022-12-15T15:22:49.355Z,8.27
2022-12-15T15:25:33.606Z,7.93
2022-12-15T15:28:16.616Z,5.22
2022-12-15T15:30:48.673Z,6.72
2022-12-15T15:33:21.726Z,6.80
2022-12-15T15:35:54.548Z,8.40
2022-12-15T15:38:27.117Z,9.70
2022-12-15T15:40:58.979Z,7.70
2022-12-15T15:43:30.330Z,6.75
2022-12-15T15:46:03.458Z,6.30
2022-12-15T15:48:38.517Z,13.10
2022-12-15T15:51:08.985Z,16.77
2022-12-15T15:53:40.136Z,10.10
2022-12-15T15:56:13.537Z,8.73
2022-12-15T15:58:43.910Z,8.57
2022-12-15T16:01:14.181Z,7.35
2022-12-15T16:03:46.543Z,7.50
2022-12-15T16:06:19.903Z,10.95
2022-12-15T16:08:54.658Z,12.85
2022-12-15T16:11:28.322Z,8.85
2022-12-15T16:13:58.023Z,9.05
2022-12-15T16:16:32.870Z,15.07
2022-12-15T16:19:05.211Z,25.75
2022-12-15T16:21:35.474Z,11.60
2022-12-15T16:24:11.393Z,27.73
2022-12-15T16:26:44.505Z,20.30
2022-12-15T16:29:17.500Z,22.08
2022-12-15T16:31:47.469Z,29.67
2022-12-15T16:34:21.818Z,19.30
2022-12-15T16:36:51.507Z,23.08
2022-12-15T16:39:30.602Z,29.27
2022-12-15T16:42:00.856Z,41.50
2022-12-15T16:44:31.937Z,23.65
2022-12-15T16:47:01.722Z,18.48
2022-12-15T16:49:40.018Z,13.25
2022-12-15T16:52:19.835Z,19.77
2022-12-15T16:54:51.202Z,26.20
2022-12-15T16:57:21.359Z,17.77
2022-12-15T16:59:51.031Z,17.95
2022-12-15T17:02:30.329Z,10.35
2022-12-15T17:05:02.849Z,8.98
2022-12-15T17:07:33.233Z,12.98
2022-12-15T17:10:03.385Z,12.13
2022-12-15T17:12:33.532Z,9.77
2022-12-15T17:15:03.972Z,14.13
2022-12-15T17:17:33.897Z,13.32
2022-12-15T17:23:00.479Z,12.45
2022-12-15T17:26:18.035Z,14.32
2022-12-15T17:28:32.471Z,12.68
2022-12-15T17:31:03.086Z,14.70
2022-12-15T17:33:36.493Z,11.32
2022-12-15T17:36:18.160Z,10.02
2022-12-15T17:38:47.891Z,17.23
2022-12-15T17:41:42.251Z,13.85
2022-12-15T17:44:37.903Z,11.93
2022-12-15T17:47:10.497Z,14.75
2022-12-15T17:49:40.874Z,8.43
2022-12-15T17:52:30.963Z,9.57
2022-12-15T17:55:00.889Z,8.63
2022-12-15T17:57:32.228Z,9.50
2022-12-15T18:00:02.452Z,10.75
2022-12-15T18:02:35.273Z,8.20
2022-12-15T18:05:05.116Z,9.95
2022-12-15T18:07:37.575Z,9.15
2022-12-15T18:10:08.343Z,8.23
2022-12-15T18:12:38.055Z,6.25
2022-12-15T18:15:20.384Z,6.22
2022-12-15T18:17:50.263Z,6.95
2022-12-15T18:20:21.486Z,7.75
2022-12-15T18:22:54.577Z,7.50
2022-12-15T18:25:26.623Z,6.50
2022-12-15T18:27:56.896Z,6.43
2022-12-15T18:30:28.895Z,6.93
2022-12-15T18:33:01.368Z,9.07
2022-12-15T18:35:36.676Z,11.45
2022-12-15T18:38:16.953Z,10.30
2022-12-15T18:40:48.580Z,13.75
2022-12-15T18:43:20.181Z,11.82
2022-12-15T18:45:51.900Z,13.02
2022-12-15T18:48:24.807Z,12.57
2022-12-15T18:50:56.549Z,10.45
2022-12-15T18:53:31.320Z,12.40
2022-12-15T18:56:03.769Z,11.73
2022-12-15T18:58:35.150Z,11.63
2022-12-15T19:01:07.715Z,17.02
2022-12-15T19:03:38.841Z,12.15
2022-12-15T19:06:11.704Z,12.13
2022-12-15T19:08:44.268Z,11.00
2022-12-15T19:11:19.720Z,11.90
2022-12-15T19:13:49.442Z,17.33
2022-12-15T19:16:22.279Z,17.77
2022-12-15T19:19:04.613Z,16.95
2022-12-15T19:21:48.371Z,16.83
2022-12-15T19:24:46.887Z,14.85
2022-12-15T19:27:20.916Z,13.35
2022-12-15T19:29:51.003Z,11.73
2022-12-15T19:32:20.755Z,12.70
2022-12-15T19:34:50.440Z,11.73
2022-12-15T19:37:26.537Z,10.55
2022-12-15T19:40:00.769Z,10.30
2022-12-15T19:42:35.477Z,9.98
2022-12-15T19:45:16.666Z,7.38
2022-12-15T19:47:46.549Z,7.90
2022-12-15T19:50:18.080Z,7.80
2022-12-15T19:52:49.854Z,7.35
2022-12-15T19:55:28.379Z,9.52
2022-12-15T19:57:58.158Z,6.93
2022-12-15T20:00:28.195Z,6.63
2022-12-15T20:03:00.161Z,7.10
2022-12-15T20:05:30.504Z,6.88
2022-12-15T20:08:00.160Z,5.70
2022-12-15T20:10:32.912Z,5.07
2022-12-15T20:13:03.456Z,4.28
2022-12-15T20:15:33.233Z,4.78
2022-12-15T20:18:02.902Z,4.78
2022-12-15T20:20:32.715Z,5.47
2022-12-15T20:23:06.223Z,4.63
2022-12-15T20:25:40.381Z,3.92
2022-12-15T20:28:16.999Z,3.88
2022-12-15T20:30:47.608Z,4.13
2022-12-15T20:33:18.315Z,4.55
2022-12-15T20:35:50.863Z,4.75
2022-12-15T20:38:29.101Z,6.53
2022-12-15T20:41:02.355Z,7.30
2022-12-15T20:43:35.080Z,6.25
2022-12-15T20:46:08.640Z,5.65
2022-12-15T20:48:39.323Z,5.00
2022-12-15T20:51:11.058Z,8.20
2022-12-15T20:53:41.899Z,7.95
2022-12-15T20:56:14.643Z,12.68
2022-12-15T20:58:46.066Z,10.95
2022-12-15T21:01:21.579Z,8.02
2022-12-15T21:03:53.008Z,7.53
2022-12-15T21:06:23.140Z,5.90
2022-12-15T21:08:52.860Z,6.72
2022-12-15T21:11:26.898Z,9.07
2022-12-15T21:14:04.081Z,8.55
2022-12-15T21:16:34.805Z,8.43
2022-12-15T21:19:22.600Z,7.28
2022-12-15T21:21:55.843Z,6.05
2022-12-15T21:24:28.024Z,7.40
2022-12-15T21:27:01.603Z,6.75
2022-12-15T21:29:38.933Z,8.15
2022-12-15T21:32:08.642Z,7.10
2022-12-15T21:34:39.364Z,6.90
2022-12-15T21:37:16.249Z,6.72
2022-12-15T21:39:46.096Z,5.75
2022-12-15T21:42:21.140Z,8.00
2022-12-15T21:44:51.067Z,6.75
2022-12-15T21:47:47.515Z,6.57
2022-12-15T21:52:44.763Z,8.02
2022-12-15T21:55:18.329Z,6.72
2022-12-15T21:57:50.590Z,7.25
2022-12-15T22:00:23.244Z,7.88
2022-12-15T22:02:54.383Z,8.02
2022-12-15T22:05:29.380Z,7.93
2022-12-15T22:08:01.337Z,3.75
2022-12-15T22:10:31.073Z,5.90
2022-12-15T22:13:03.442Z,4.80
2022-12-15T22:15:33.206Z,6.40
2022-12-15T22:18:02.963Z,5.55
2022-12-15T22:20:32.681Z,4.80
2022-12-15T22:23:02.414Z,4.53
2022-12-15T22:25:32.125Z,4.07
2022-12-15T22:28:04.351Z,3.65
2022-12-15T22:30:34.052Z,3.40
2022-12-15T22:33:05.177Z,3.20
2022-12-15T22:35:34.815Z,3.00
2022-12-15T22:38:04.467Z,2.70
2022-12-15T22:40:34.316Z,2.50
2022-12-15T22:43:07.740Z,2.42
2022-12-15T22:45:41.256Z,1.90
2022-12-15T22:48:15.579Z,2.08
2022-12-15T22:50:45.325Z,2.05
2022-12-15T22:53:17.023Z,1.60
2022-12-15T22:55:49.143Z,2.28
2022-12-15T22:58:29.040Z,2.15
2022-12-15T23:01:01.102Z,1.80
2022-12-15T23:03:32.301Z,1.88
2022-12-15T23:06:04.099Z,1.48
2022-12-15T23:08:34.786Z,1.60
2022-12-15T23:11:16.997Z,1.45
2022-12-15T23:13:49.327Z,1.77
2022-12-15T23:16:21.624Z,1.60
2022-12-15T23:18:52.737Z,1.50
2022-12-15T23:21:25.968Z,1.35
2022-12-15T23:23:55.754Z,1.45
2022-12-15T23:26:26.067Z,1.13
2022-12-15T23:28:58.354Z,1.13
2022-12-15T23:31:28.115Z,1.10
2022-12-15T23:33:57.860Z,1.35
2022-12-15T23:36:27.598Z,1.02
2022-12-15T23:38:57.718Z,1.13
2022-12-15T23:41:29.246Z,1.10
2022-12-15T23:44:01.614Z,0.90
2022-12-15T23:46:31.358Z,1.15
2022-12-15T23:49:01.613Z,1.13
2022-12-15T23:51:31.664Z,0.95
2022-12-15T23:54:01.343Z,1.00
2022-12-15T23:56:31.049Z,0.90
2022-12-15T23:59:03.324Z,0.85
